sensor_id;sensor_type;location;lat;lon;timestamp;temperature;humidity
74792;SHT30;63319;46.046;17.802;2024-01-07T00:01:39;8.51;88.70
74792;SHT30;63319;46.046;17.802;2024-01-07T00:04:42;8.37;89.03
74792;SHT30;63319;46.046;17.802;2024-01-07T00:07:45;8.31;89.34
74792;SHT30;63319;46.046;17.802;2024-01-07T00:10:48;8.17;90.58
74792;SHT30;63319;46.046;17.802;2024-01-07T00:13:54;7.98;90.76
74792;SHT30;63319;46.046;17.802;2024-01-07T00:16:57;8.10;90.88
74792;SHT30;63319;46.046;17.802;2024-01-07T00:20:00;8.45;88.91
74792;SHT30;63319;46.046;17.802;2024-01-07T00:23:04;8.18;89.80
74792;SHT30;63319;46.046;17.802;2024-01-07T00:26:07;8.30;89.85
74792;SHT30;63319;46.046;17.802;2024-01-07T00:29:10;8.10;90.34
74792;SHT30;63319;46.046;17.802;2024-01-07T00:32:14;8.04;90.76
74792;SHT30;63319;46.046;17.802;2024-01-07T00:35:17;8.27;89.79
74792;SHT30;63319;46.046;17.802;2024-01-07T00:38:20;8.46;89.12
74792;SHT30;63319;46.046;17.802;2024-01-07T00:41:23;8.23;90.14
74792;SHT30;63319;46.046;17.802;2024-01-07T00:44:27;8.23;90.29
74792;SHT30;63319;46.046;17.802;2024-01-07T00:47:30;8.28;89.45
74792;SHT30;63319;46.046;17.802;2024-01-07T00:50:33;8.27;90.08
74792;SHT30;63319;46.046;17.802;2024-01-07T00:53:36;8.35;89.39
74792;SHT30;63319;46.046;17.802;2024-01-07T00:56:39;8.30;90.03
74792;SHT30;63319;46.046;17.802;2024-01-07T00:59:42;8.48;88.95
74792;SHT30;63319;46.046;17.802;2024-01-07T01:02:45;8.31;89.31
74792;SHT30;63319;46.046;17.802;2024-01-07T01:05:48;8.41;89.16
74792;SHT30;63319;46.046;17.802;2024-01-07T01:08:51;8.23;89.91
74792;SHT30;63319;46.046;17.802;2024-01-07T01:11:54;8.08;90.62
74792;SHT30;63319;46.046;17.802;2024-01-07T01:14:57;8.24;90.34
74792;SHT30;63319;46.046;17.802;2024-01-07T01:18:00;8.31;89.88
74792;SHT30;63319;46.046;17.802;2024-01-07T01:21:04;8.20;89.99
74792;SHT30;63319;46.046;17.802;2024-01-07T01:24:07;8.21;90.43
74792;SHT30;63319;46.046;17.802;2024-01-07T01:27:10;8.23;90.05
74792;SHT30;63319;46.046;17.802;2024-01-07T01:30:14;8.25;90.07
74792;SHT30;63319;46.046;17.802;2024-01-07T01:33:17;7.94;91.21
74792;SHT30;63319;46.046;17.802;2024-01-07T01:36:20;8.28;89.83
74792;SHT30;63319;46.046;17.802;2024-01-07T01:39:24;8.07;90.90
74792;SHT30;63319;46.046;17.802;2024-01-07T01:42:27;8.23;90.04
74792;SHT30;63319;46.046;17.802;2024-01-07T01:45:30;8.35;89.29
74792;SHT30;63319;46.046;17.802;2024-01-07T01:48:35;7.86;90.98
74792;SHT30;63319;46.046;17.802;2024-01-07T01:51:39;8.03;90.84
74792;SHT30;63319;46.046;17.802;2024-01-07T01:54:42;8.06;90.16
74792;SHT30;63319;46.046;17.802;2024-01-07T01:57:46;8.10;90.35
74792;SHT30;63319;46.046;17.802;2024-01-07T02:00:50;7.94;91.04
74792;SHT30;63319;46.046;17.802;2024-01-07T02:03:53;7.77;91.28
74792;SHT30;63319;46.046;17.802;2024-01-07T02:06:57;7.86;92.05
74792;SHT30;63319;46.046;17.802;2024-01-07T02:10:00;7.70;91.54
74792;SHT30;63319;46.046;17.802;2024-01-07T02:13:04;7.67;91.86
74792;SHT30;63319;46.046;17.802;2024-01-07T02:16:07;7.69;91.78
74792;SHT30;63319;46.046;17.802;2024-01-07T02:19:10;7.73;91.53
74792;SHT30;63319;46.046;17.802;2024-01-07T02:22:14;8.10;90.02
74792;SHT30;63319;46.046;17.802;2024-01-07T02:25:17;7.94;90.87
74792;SHT30;63319;46.046;17.802;2024-01-07T02:28:20;7.79;90.75
74792;SHT30;63319;46.046;17.802;2024-01-07T02:31:23;7.67;91.28
74792;SHT30;63319;46.046;17.802;2024-01-07T02:34:26;7.73;92.03
74792;SHT30;63319;46.046;17.802;2024-01-07T02:37:29;8.01;90.23
74792;SHT30;63319;46.046;17.802;2024-01-07T02:40:31;7.77;91.38
74792;SHT30;63319;46.046;17.802;2024-01-07T02:43:35;7.85;91.04
74792;SHT30;63319;46.046;17.802;2024-01-07T02:46:38;7.79;91.06
74792;SHT30;63319;46.046;17.802;2024-01-07T02:49:41;7.90;91.18
74792;SHT30;63319;46.046;17.802;2024-01-07T02:52:44;7.85;91.08
74792;SHT30;63319;46.046;17.802;2024-01-07T02:55:47;7.79;91.84
74792;SHT30;63319;46.046;17.802;2024-01-07T02:58:50;7.82;90.97
74792;SHT30;63319;46.046;17.802;2024-01-07T03:01:52;7.90;90.16
74792;SHT30;63319;46.046;17.802;2024-01-07T03:04:55;7.90;90.75
74792;SHT30;63319;46.046;17.802;2024-01-07T03:07:59;8.01;90.23
74792;SHT30;63319;46.046;17.802;2024-01-07T03:11:06;8.20;89.65
74792;SHT30;63319;46.046;17.802;2024-01-07T03:14:12;7.89;90.14
74792;SHT30;63319;46.046;17.802;2024-01-07T03:17:15;7.93;90.59
74792;SHT30;63319;46.046;17.802;2024-01-07T03:20:19;8.14;89.20
74792;SHT30;63319;46.046;17.802;2024-01-07T03:23:22;7.82;90.66
74792;SHT30;63319;46.046;17.802;2024-01-07T03:26:29;8.01;89.72
74792;SHT30;63319;46.046;17.802;2024-01-07T03:29:33;7.91;90.63
74792;SHT30;63319;46.046;17.802;2024-01-07T03:32:36;7.90;90.06
74792;SHT30;63319;46.046;17.802;2024-01-07T03:35:39;7.94;89.80
74792;SHT30;63319;46.046;17.802;2024-01-07T03:38:42;7.96;90.09
74792;SHT30;63319;46.046;17.802;2024-01-07T03:41:45;7.87;90.16
74792;SHT30;63319;46.046;17.802;2024-01-07T03:44:48;8.00;89.71
74792;SHT30;63319;46.046;17.802;2024-01-07T03:48:10;7.94;90.15
74792;SHT30;63319;46.046;17.802;2024-01-07T03:51:13;7.76;90.75
74792;SHT30;63319;46.046;17.802;2024-01-07T03:54:15;7.73;91.35
74792;SHT30;63319;46.046;17.802;2024-01-07T03:57:18;7.56;91.08
74792;SHT30;63319;46.046;17.802;2024-01-07T04:00:22;7.91;90.22
74792;SHT30;63319;46.046;17.802;2024-01-07T04:03:25;7.82;90.66
74792;SHT30;63319;46.046;17.802;2024-01-07T04:06:28;7.94;90.27
74792;SHT30;63319;46.046;17.802;2024-01-07T04:09:31;7.98;89.93
74792;SHT30;63319;46.046;17.802;2024-01-07T04:12:34;8.01;89.59
74792;SHT30;63319;46.046;17.802;2024-01-07T04:15:38;7.63;90.95
74792;SHT30;63319;46.046;17.802;2024-01-07T04:18:41;7.82;90.98
74792;SHT30;63319;46.046;17.802;2024-01-07T04:21:47;7.89;89.74
74792;SHT30;63319;46.046;17.802;2024-01-07T04:24:50;7.87;89.89
74792;SHT30;63319;46.046;17.802;2024-01-07T04:27:53;7.98;89.60
74792;SHT30;63319;46.046;17.802;2024-01-07T04:30:56;7.85;90.27
74792;SHT30;63319;46.046;17.802;2024-01-07T04:33:59;7.82;89.94
74792;SHT30;63319;46.046;17.802;2024-01-07T04:37:02;7.59;90.86
74792;SHT30;63319;46.046;17.802;2024-01-07T04:40:05;7.79;90.28
74792;SHT30;63319;46.046;17.802;2024-01-07T04:43:09;7.51;90.98
74792;SHT30;63319;46.046;17.802;2024-01-07T04:46:13;7.87;90.18
74792;SHT30;63319;46.046;17.802;2024-01-07T04:49:16;7.98;89.33
74792;SHT30;63319;46.046;17.802;2024-01-07T04:52:20;7.90;89.26
74792;SHT30;63319;46.046;17.802;2024-01-07T04:55:24;7.82;90.04
74792;SHT30;63319;46.046;17.802;2024-01-07T04:58:26;8.03;88.93
74792;SHT30;63319;46.046;17.802;2024-01-07T05:01:32;7.91;89.28
74792;SHT30;63319;46.046;17.802;2024-01-07T05:04:36;7.69;90.40
74792;SHT30;63319;46.046;17.802;2024-01-07T05:07:39;7.91;89.55
74792;SHT30;63319;46.046;17.802;2024-01-07T05:10:42;7.87;89.79
74792;SHT30;63319;46.046;17.802;2024-01-07T05:13:45;7.97;89.14
74792;SHT30;63319;46.046;17.802;2024-01-07T05:16:48;7.73;90.66
74792;SHT30;63319;46.046;17.802;2024-01-07T05:19:51;7.79;89.78
74792;SHT30;63319;46.046;17.802;2024-01-07T05:22:55;7.86;89.70
74792;SHT30;63319;46.046;17.802;2024-01-07T05:25:59;7.89;89.37
74792;SHT30;63319;46.046;17.802;2024-01-07T05:29:02;7.93;89.28
74792;SHT30;63319;46.046;17.802;2024-01-07T05:32:05;7.87;88.63
74792;SHT30;63319;46.046;17.802;2024-01-07T05:35:08;7.80;89.06
74792;SHT30;63319;46.046;17.802;2024-01-07T05:38:11;7.76;89.00
74792;SHT30;63319;46.046;17.802;2024-01-07T05:41:14;7.87;89.13
74792;SHT30;63319;46.046;17.802;2024-01-07T05:44:17;7.89;89.02
74792;SHT30;63319;46.046;17.802;2024-01-07T05:47:20;7.86;88.99
74792;SHT30;63319;46.046;17.802;2024-01-07T05:50:23;7.66;89.27
74792;SHT30;63319;46.046;17.802;2024-01-07T05:53:26;7.89;88.89
74792;SHT30;63319;46.046;17.802;2024-01-07T05:56:29;7.80;88.66
74792;SHT30;63319;46.046;17.802;2024-01-07T05:59:32;7.97;88.20
74792;SHT30;63319;46.046;17.802;2024-01-07T06:02:35;7.97;88.22
74792;SHT30;63319;46.046;17.802;2024-01-07T06:05:38;7.90;88.05
74792;SHT30;63319;46.046;17.802;2024-01-07T06:08:42;7.94;88.41
74792;SHT30;63319;46.046;17.802;2024-01-07T06:11:45;7.89;88.03
74792;SHT30;63319;46.046;17.802;2024-01-07T06:14:48;7.76;88.34
74792;SHT30;63319;46.046;17.802;2024-01-07T06:17:51;7.96;88.04
74792;SHT30;63319;46.046;17.802;2024-01-07T06:20:54;7.77;87.78
74792;SHT30;63319;46.046;17.802;2024-01-07T06:23:57;7.73;88.15
74792;SHT30;63319;46.046;17.802;2024-01-07T06:27:00;7.69;87.89
74792;SHT30;63319;46.046;17.802;2024-01-07T06:30:07;7.73;88.45
74792;SHT30;63319;46.046;17.802;2024-01-07T06:33:11;7.63;88.47
74792;SHT30;63319;46.046;17.802;2024-01-07T06:36:15;7.75;87.89
74792;SHT30;63319;46.046;17.802;2024-01-07T06:39:18;7.67;87.91
74792;SHT30;63319;46.046;17.802;2024-01-07T06:42:21;7.34;88.36
74792;SHT30;63319;46.046;17.802;2024-01-07T06:45:25;7.52;85.89
74792;SHT30;63319;46.046;17.802;2024-01-07T06:48:28;7.36;87.37
74792;SHT30;63319;46.046;17.802;2024-01-07T06:51:31;7.36;85.70
74792;SHT30;63319;46.046;17.802;2024-01-07T06:54:34;7.25;85.49
74792;SHT30;63319;46.046;17.802;2024-01-07T06:57:37;7.24;85.64
74792;SHT30;63319;46.046;17.802;2024-01-07T07:00:40;7.19;86.01
74792;SHT30;63319;46.046;17.802;2024-01-07T07:03:43;7.08;86.96
74792;SHT30;63319;46.046;17.802;2024-01-07T07:06:47;7.00;85.69
74792;SHT30;63319;46.046;17.802;2024-01-07T07:09:50;6.81;86.99
74792;SHT30;63319;46.046;17.802;2024-01-07T07:12:55;6.91;86.19
74792;SHT30;63319;46.046;17.802;2024-01-07T07:15:59;7.00;85.58
74792;SHT30;63319;46.046;17.802;2024-01-07T07:19:02;6.93;86.02
74792;SHT30;63319;46.046;17.802;2024-01-07T07:22:05;6.96;85.62
74792;SHT30;63319;46.046;17.802;2024-01-07T07:25:08;7.00;85.11
74792;SHT30;63319;46.046;17.802;2024-01-07T07:28:11;6.66;85.44
74792;SHT30;63319;46.046;17.802;2024-01-07T07:31:14;6.89;84.78
74792;SHT30;63319;46.046;17.802;2024-01-07T07:34:17;6.76;85.06
74792;SHT30;63319;46.046;17.802;2024-01-07T07:37:20;6.70;85.25
74792;SHT30;63319;46.046;17.802;2024-01-07T07:40:23;6.69;84.25
74792;SHT30;63319;46.046;17.802;2024-01-07T07:43:26;6.66;84.91
74792;SHT30;63319;46.046;17.802;2024-01-07T07:46:29;6.31;85.04
74792;SHT30;63319;46.046;17.802;2024-01-07T07:49:32;6.42;84.14
74792;SHT30;63319;46.046;17.802;2024-01-07T07:52:54;6.49;83.68
74792;SHT30;63319;46.046;17.802;2024-01-07T07:55:57;6.46;83.43
74792;SHT30;63319;46.046;17.802;2024-01-07T07:58:59;6.28;84.11
74792;SHT30;63319;46.046;17.802;2024-01-07T08:02:03;6.31;83.12
74792;SHT30;63319;46.046;17.802;2024-01-07T08:05:07;6.29;82.89
74792;SHT30;63319;46.046;17.802;2024-01-07T08:08:10;6.15;82.92
74792;SHT30;63319;46.046;17.802;2024-01-07T08:11:13;6.14;83.50
74792;SHT30;63319;46.046;17.802;2024-01-07T08:14:16;6.04;83.79
74792;SHT30;63319;46.046;17.802;2024-01-07T08:17:19;6.14;82.88
74792;SHT30;63319;46.046;17.802;2024-01-07T08:20:22;5.94;83.50
74792;SHT30;63319;46.046;17.802;2024-01-07T08:23:25;6.17;82.80
74792;SHT30;63319;46.046;17.802;2024-01-07T08:26:28;6.00;83.11
74792;SHT30;63319;46.046;17.802;2024-01-07T08:29:30;6.05;82.71
74792;SHT30;63319;46.046;17.802;2024-01-07T08:32:33;5.93;82.68
74792;SHT30;63319;46.046;17.802;2024-01-07T08:35:38;5.84;83.33
74792;SHT30;63319;46.046;17.802;2024-01-07T08:38:40;5.84;83.69
74792;SHT30;63319;46.046;17.802;2024-01-07T08:41:43;5.84;83.39
74792;SHT30;63319;46.046;17.802;2024-01-07T08:44:46;5.89;82.98
74792;SHT30;63319;46.046;17.802;2024-01-07T08:47:50;5.66;83.84
74792;SHT30;63319;46.046;17.802;2024-01-07T08:50:53;5.67;83.59
74792;SHT30;63319;46.046;17.802;2024-01-07T08:53:57;5.56;83.58
74792;SHT30;63319;46.046;17.802;2024-01-07T08:57:00;5.45;84.37
74792;SHT30;63319;46.046;17.802;2024-01-07T09:00:04;5.54;83.20
74792;SHT30;63319;46.046;17.802;2024-01-07T09:03:08;5.45;83.03
74792;SHT30;63319;46.046;17.802;2024-01-07T09:06:10;5.64;82.69
74792;SHT30;63319;46.046;17.802;2024-01-07T09:09:13;5.67;82.27
74792;SHT30;63319;46.046;17.802;2024-01-07T09:12:16;5.67;82.08
74792;SHT30;63319;46.046;17.802;2024-01-07T09:15:20;5.46;82.91
74792;SHT30;63319;46.046;17.802;2024-01-07T09:18:23;5.40;83.88
74792;SHT30;63319;46.046;17.802;2024-01-07T09:21:26;5.56;82.52
74792;SHT30;63319;46.046;17.802;2024-01-07T09:24:29;5.47;83.02
74792;SHT30;63319;46.046;17.802;2024-01-07T09:27:32;5.39;84.08
74792;SHT30;63319;46.046;17.802;2024-01-07T09:30:35;5.56;82.78
74792;SHT30;63319;46.046;17.802;2024-01-07T09:33:38;5.53;83.68
74792;SHT30;63319;46.046;17.802;2024-01-07T09:36:41;5.40;83.15
74792;SHT30;63319;46.046;17.802;2024-01-07T09:39:44;5.49;82.60
74792;SHT30;63319;46.046;17.802;2024-01-07T09:42:48;5.22;83.36
74792;SHT30;63319;46.046;17.802;2024-01-07T09:45:53;5.38;83.39
74792;SHT30;63319;46.046;17.802;2024-01-07T09:48:59;5.50;82.49
74792;SHT30;63319;46.046;17.802;2024-01-07T09:52:04;5.19;83.46
74792;SHT30;63319;46.046;17.802;2024-01-07T09:55:09;5.35;83.17
74792;SHT30;63319;46.046;17.802;2024-01-07T09:58:13;5.50;82.77
74792;SHT30;63319;46.046;17.802;2024-01-07T10:01:20;5.62;81.65
74792;SHT30;63319;46.046;17.802;2024-01-07T10:04:24;5.63;81.47
74792;SHT30;63319;46.046;17.802;2024-01-07T10:07:27;5.56;81.92
74792;SHT30;63319;46.046;17.802;2024-01-07T10:10:30;5.56;81.15
74792;SHT30;63319;46.046;17.802;2024-01-07T10:13:33;5.46;81.46
74792;SHT30;63319;46.046;17.802;2024-01-07T10:16:36;5.62;80.58
74792;SHT30;63319;46.046;17.802;2024-01-07T10:19:40;5.50;81.12
74792;SHT30;63319;46.046;17.802;2024-01-07T10:22:49;5.50;80.66
74792;SHT30;63319;46.046;17.802;2024-01-07T10:25:53;5.49;80.47
74792;SHT30;63319;46.046;17.802;2024-01-07T10:28:58;5.31;81.04
74792;SHT30;63319;46.046;17.802;2024-01-07T10:32:02;5.33;82.33
74792;SHT30;63319;46.046;17.802;2024-01-07T10:35:12;5.35;80.63
74792;SHT30;63319;46.046;17.802;2024-01-07T10:38:15;5.24;80.68
74792;SHT30;63319;46.046;17.802;2024-01-07T10:41:19;5.29;79.91
74792;SHT30;63319;46.046;17.802;2024-01-07T10:44:21;4.99;80.64
74792;SHT30;63319;46.046;17.802;2024-01-07T10:47:29;4.89;81.13
74792;SHT30;63319;46.046;17.802;2024-01-07T10:50:34;4.89;81.43
74792;SHT30;63319;46.046;17.802;2024-01-07T10:53:38;4.80;81.80
74792;SHT30;63319;46.046;17.802;2024-01-07T10:56:45;4.91;80.18
74792;SHT30;63319;46.046;17.802;2024-01-07T10:59:52;5.08;79.86
74792;SHT30;63319;46.046;17.802;2024-01-07T11:03:14;5.05;79.69
74792;SHT30;63319;46.046;17.802;2024-01-07T11:06:41;4.95;79.95
74792;SHT30;63319;46.046;17.802;2024-01-07T11:13:31;4.68;80.61
74792;SHT30;63319;46.046;17.802;2024-01-07T11:16:44;4.57;81.09
74792;SHT30;63319;46.046;17.802;2024-01-07T11:19:50;4.53;81.18
74792;SHT30;63319;46.046;17.802;2024-01-07T11:23:32;4.36;81.76
74792;SHT30;63319;46.046;17.802;2024-01-07T11:26:36;4.30;81.35
74792;SHT30;63319;46.046;17.802;2024-01-07T11:29:40;4.26;81.66
74792;SHT30;63319;46.046;17.802;2024-01-07T11:32:45;4.33;80.53
74792;SHT30;63319;46.046;17.802;2024-01-07T11:35:59;4.15;81.71
74792;SHT30;63319;46.046;17.802;2024-01-07T11:39:04;4.12;81.58
74792;SHT30;63319;46.046;17.802;2024-01-07T11:42:12;4.15;80.81
74792;SHT30;63319;46.046;17.802;2024-01-07T11:45:15;4.02;81.89
74792;SHT30;63319;46.046;17.802;2024-01-07T11:48:19;3.81;81.55
74792;SHT30;63319;46.046;17.802;2024-01-07T11:51:22;4.05;80.97
74792;SHT30;63319;46.046;17.802;2024-01-07T11:54:25;4.02;80.45
74792;SHT30;63319;46.046;17.802;2024-01-07T11:57:28;3.87;81.15
74792;SHT30;63319;46.046;17.802;2024-01-07T12:00:34;3.82;81.42
74792;SHT30;63319;46.046;17.802;2024-01-07T12:03:37;3.88;81.13
74792;SHT30;63319;46.046;17.802;2024-01-07T12:06:40;3.91;80.38
74792;SHT30;63319;46.046;17.802;2024-01-07T12:09:43;3.77;81.28
74792;SHT30;63319;46.046;17.802;2024-01-07T12:12:47;3.82;80.58
74792;SHT30;63319;46.046;17.802;2024-01-07T12:15:51;3.68;81.83
74792;SHT30;63319;46.046;17.802;2024-01-07T12:18:54;3.71;81.66
74792;SHT30;63319;46.046;17.802;2024-01-07T12:22:05;3.34;82.42
74792;SHT30;63319;46.046;17.802;2024-01-07T12:25:09;3.47;82.52
74792;SHT30;63319;46.046;17.802;2024-01-07T12:28:12;3.68;81.74
74792;SHT30;63319;46.046;17.802;2024-01-07T12:31:15;3.71;81.39
74792;SHT30;63319;46.046;17.802;2024-01-07T12:34:18;3.79;80.36
74792;SHT30;63319;46.046;17.802;2024-01-07T12:37:26;3.51;81.37
74792;SHT30;63319;46.046;17.802;2024-01-07T12:40:29;3.70;79.96
74792;SHT30;63319;46.046;17.802;2024-01-07T12:43:33;3.37;81.06
74792;SHT30;63319;46.046;17.802;2024-01-07T12:46:36;3.56;80.89
74792;SHT30;63319;46.046;17.802;2024-01-07T12:49:39;3.13;82.11
74792;SHT30;63319;46.046;17.802;2024-01-07T12:52:42;3.39;81.95
74792;SHT30;63319;46.046;17.802;2024-01-07T12:55:45;3.22;83.14
74792;SHT30;63319;46.046;17.802;2024-01-07T12:58:48;3.53;81.10
74792;SHT30;63319;46.046;17.802;2024-01-07T13:01:51;3.30;81.97
74792;SHT30;63319;46.046;17.802;2024-01-07T13:04:54;2.87;82.66
74792;SHT30;63319;46.046;17.802;2024-01-07T13:07:58;2.88;83.16
74792;SHT30;63319;46.046;17.802;2024-01-07T13:11:00;2.95;83.90
74792;SHT30;63319;46.046;17.802;2024-01-07T13:14:03;3.19;82.04
74792;SHT30;63319;46.046;17.802;2024-01-07T13:17:06;2.95;83.06
74792;SHT30;63319;46.046;17.802;2024-01-07T13:20:11;2.85;82.57
74792;SHT30;63319;46.046;17.802;2024-01-07T13:23:14;2.87;82.56
74792;SHT30;63319;46.046;17.802;2024-01-07T13:26:18;2.93;82.71
74792;SHT30;63319;46.046;17.802;2024-01-07T13:29:21;2.88;82.29
74792;SHT30;63319;46.046;17.802;2024-01-07T13:32:24;2.91;82.41
74792;SHT30;63319;46.046;17.802;2024-01-07T13:35:27;2.99;81.64
74792;SHT30;63319;46.046;17.802;2024-01-07T13:38:30;2.96;81.77
74792;SHT30;63319;46.046;17.802;2024-01-07T13:41:34;2.93;81.39
74792;SHT30;63319;46.046;17.802;2024-01-07T13:44:37;2.81;81.87
74792;SHT30;63319;46.046;17.802;2024-01-07T13:47:48;2.82;81.26
74792;SHT30;63319;46.046;17.802;2024-01-07T13:50:52;2.88;81.80
74792;SHT30;63319;46.046;17.802;2024-01-07T13:53:56;2.87;81.07
74792;SHT30;63319;46.046;17.802;2024-01-07T13:56:59;2.95;80.62
74792;SHT30;63319;46.046;17.802;2024-01-07T14:00:03;2.54;81.43
74792;SHT30;63319;46.046;17.802;2024-01-07T14:03:12;2.80;80.75
74792;SHT30;63319;46.046;17.802;2024-01-07T14:06:15;2.74;81.11
74792;SHT30;63319;46.046;17.802;2024-01-07T14:09:18;2.68;81.10
74792;SHT30;63319;46.046;17.802;2024-01-07T14:12:21;2.57;81.40
74792;SHT30;63319;46.046;17.802;2024-01-07T14:15:24;2.55;82.27
74792;SHT30;63319;46.046;17.802;2024-01-07T14:18:26;2.66;81.09
74792;SHT30;63319;46.046;17.802;2024-01-07T14:21:30;2.41;82.61
74792;SHT30;63319;46.046;17.802;2024-01-07T14:24:33;2.44;82.10
74792;SHT30;63319;46.046;17.802;2024-01-07T14:27:36;2.38;82.76
74792;SHT30;63319;46.046;17.802;2024-01-07T14:30:39;2.37;82.48
74792;SHT30;63319;46.046;17.802;2024-01-07T14:33:43;2.29;82.95
74792;SHT30;63319;46.046;17.802;2024-01-07T14:36:46;2.47;82.19
74792;SHT30;63319;46.046;17.802;2024-01-07T14:39:48;2.47;82.94
74792;SHT30;63319;46.046;17.802;2024-01-07T14:42:51;2.22;83.88
74792;SHT30;63319;46.046;17.802;2024-01-07T14:45:57;2.38;84.45
74792;SHT30;63319;46.046;17.802;2024-01-07T14:49:00;1.96;83.78
74792;SHT30;63319;46.046;17.802;2024-01-07T14:52:04;2.14;84.74
74792;SHT30;63319;46.046;17.802;2024-01-07T14:55:07;2.32;84.76
74792;SHT30;63319;46.046;17.802;2024-01-07T14:58:10;2.32;83.46
74792;SHT30;63319;46.046;17.802;2024-01-07T15:01:13;2.51;84.58
74792;SHT30;63319;46.046;17.802;2024-01-07T15:04:17;2.29;83.92
74792;SHT30;63319;46.046;17.802;2024-01-07T15:07:21;2.20;83.56
74792;SHT30;63319;46.046;17.802;2024-01-07T15:10:24;1.98;85.82
74792;SHT30;63319;46.046;17.802;2024-01-07T15:13:27;1.83;85.07
74792;SHT30;63319;46.046;17.802;2024-01-07T15:16:34;1.89;85.21
74792;SHT30;63319;46.046;17.802;2024-01-07T15:19:38;2.22;85.81
74792;SHT30;63319;46.046;17.802;2024-01-07T15:22:41;2.19;84.64
74792;SHT30;63319;46.046;17.802;2024-01-07T15:25:44;2.14;85.56
74792;SHT30;63319;46.046;17.802;2024-01-07T15:28:47;1.95;85.71
74792;SHT30;63319;46.046;17.802;2024-01-07T15:31:50;2.05;85.32
74792;SHT30;63319;46.046;17.802;2024-01-07T15:34:53;2.12;84.57
74792;SHT30;63319;46.046;17.802;2024-01-07T15:37:56;1.83;86.13
74792;SHT30;63319;46.046;17.802;2024-01-07T15:41:00;1.95;84.62
74792;SHT30;63319;46.046;17.802;2024-01-07T15:44:03;1.76;85.67
74792;SHT30;63319;46.046;17.802;2024-01-07T15:47:06;1.89;85.45
74792;SHT30;63319;46.046;17.802;2024-01-07T15:50:09;1.95;85.29
74792;SHT30;63319;46.046;17.802;2024-01-07T15:53:16;1.87;84.70
74792;SHT30;63319;46.046;17.802;2024-01-07T15:56:19;1.79;84.80
74792;SHT30;63319;46.046;17.802;2024-01-07T15:59:22;1.78;86.14
74792;SHT30;63319;46.046;17.802;2024-01-07T16:02:25;1.76;84.78
74792;SHT30;63319;46.046;17.802;2024-01-07T16:05:28;1.74;85.25
74792;SHT30;63319;46.046;17.802;2024-01-07T16:08:32;1.71;85.55
74792;SHT30;63319;46.046;17.802;2024-01-07T16:11:35;1.81;85.11
74792;SHT30;63319;46.046;17.802;2024-01-07T16:14:38;1.65;84.11
74792;SHT30;63319;46.046;17.802;2024-01-07T16:17:41;1.52;85.49
74792;SHT30;63319;46.046;17.802;2024-01-07T16:20:45;1.58;84.62
74792;SHT30;63319;46.046;17.802;2024-01-07T16:23:48;1.71;83.50
74792;SHT30;63319;46.046;17.802;2024-01-07T16:26:54;1.68;83.97
74792;SHT30;63319;46.046;17.802;2024-01-07T16:29:57;1.78;83.17
74792;SHT30;63319;46.046;17.802;2024-01-07T16:33:00;1.71;82.64
74792;SHT30;63319;46.046;17.802;2024-01-07T16:36:06;1.64;84.79
74792;SHT30;63319;46.046;17.802;2024-01-07T16:39:09;1.33;84.17
74792;SHT30;63319;46.046;17.802;2024-01-07T16:42:12;1.52;84.03
74792;SHT30;63319;46.046;17.802;2024-01-07T16:45:15;1.83;81.87
74792;SHT30;63319;46.046;17.802;2024-01-07T16:48:18;1.43;82.95
74792;SHT30;63319;46.046;17.802;2024-01-07T16:51:24;1.62;83.03
74792;SHT30;63319;46.046;17.802;2024-01-07T16:54:27;1.68;81.60
74792;SHT30;63319;46.046;17.802;2024-01-07T16:57:30;1.71;82.00
74792;SHT30;63319;46.046;17.802;2024-01-07T17:00:33;1.86;82.23
74792;SHT30;63319;46.046;17.802;2024-01-07T17:03:37;1.71;81.89
74792;SHT30;63319;46.046;17.802;2024-01-07T17:06:40;1.89;81.39
74792;SHT30;63319;46.046;17.802;2024-01-07T17:09:43;1.55;82.91
74792;SHT30;63319;46.046;17.802;2024-01-07T17:12:46;1.44;81.76
74792;SHT30;63319;46.046;17.802;2024-01-07T17:15:49;1.71;81.63
74792;SHT30;63319;46.046;17.802;2024-01-07T17:18:52;1.69;81.25
74792;SHT30;63319;46.046;17.802;2024-01-07T17:21:56;1.66;81.79
74792;SHT30;63319;46.046;17.802;2024-01-07T17:25:00;1.69;80.68
74792;SHT30;63319;46.046;17.802;2024-01-07T17:28:03;1.62;82.27
74792;SHT30;63319;46.046;17.802;2024-01-07T17:31:06;1.55;81.38
74792;SHT30;63319;46.046;17.802;2024-01-07T17:34:10;1.82;80.58
74792;SHT30;63319;46.046;17.802;2024-01-07T17:37:13;1.62;82.74
74792;SHT30;63319;46.046;17.802;2024-01-07T17:40:16;1.58;81.81
74792;SHT30;63319;46.046;17.802;2024-01-07T17:43:19;1.59;82.65
74792;SHT30;63319;46.046;17.802;2024-01-07T17:46:21;1.62;80.34
74792;SHT30;63319;46.046;17.802;2024-01-07T17:49:25;1.65;81.86
74792;SHT30;63319;46.046;17.802;2024-01-07T17:52:28;1.68;80.93
74792;SHT30;63319;46.046;17.802;2024-01-07T17:55:31;1.59;82.00
74792;SHT30;63319;46.046;17.802;2024-01-07T17:58:34;1.58;82.59
74792;SHT30;63319;46.046;17.802;2024-01-07T18:01:37;1.48;82.36
74792;SHT30;63319;46.046;17.802;2024-01-07T18:04:40;1.58;81.98
74792;SHT30;63319;46.046;17.802;2024-01-07T18:07:43;1.52;83.22
74792;SHT30;63319;46.046;17.802;2024-01-07T18:10:46;1.68;81.38
74792;SHT30;63319;46.046;17.802;2024-01-07T18:13:49;1.50;82.45
74792;SHT30;63319;46.046;17.802;2024-01-07T18:16:52;1.59;81.18
74792;SHT30;63319;46.046;17.802;2024-01-07T18:19:55;1.54;82.41
74792;SHT30;63319;46.046;17.802;2024-01-07T18:22:58;1.62;81.75
74792;SHT30;63319;46.046;17.802;2024-01-07T18:26:02;1.54;80.47
74792;SHT30;63319;46.046;17.802;2024-01-07T18:29:06;1.48;80.99
74792;SHT30;63319;46.046;17.802;2024-01-07T18:32:09;1.41;83.12
74792;SHT30;63319;46.046;17.802;2024-01-07T18:35:13;1.56;81.01
74792;SHT30;63319;46.046;17.802;2024-01-07T18:38:16;1.45;81.29
74792;SHT30;63319;46.046;17.802;2024-01-07T18:41:20;1.35;83.22
74792;SHT30;63319;46.046;17.802;2024-01-07T18:44:26;1.65;80.53
74792;SHT30;63319;46.046;17.802;2024-01-07T18:47:32;1.43;82.08
74792;SHT30;63319;46.046;17.802;2024-01-07T18:50:35;1.40;82.37
74792;SHT30;63319;46.046;17.802;2024-01-07T18:53:40;1.40;80.83
74792;SHT30;63319;46.046;17.802;2024-01-07T18:56:43;1.45;80.93
74792;SHT30;63319;46.046;17.802;2024-01-07T18:59:46;1.40;81.75
74792;SHT30;63319;46.046;17.802;2024-01-07T19:02:49;1.35;82.20
74792;SHT30;63319;46.046;17.802;2024-01-07T19:05:52;1.33;82.94
74792;SHT30;63319;46.046;17.802;2024-01-07T19:08:55;1.47;81.12
74792;SHT30;63319;46.046;17.802;2024-01-07T19:11:59;1.37;81.28
74792;SHT30;63319;46.046;17.802;2024-01-07T19:15:02;1.31;81.56
74792;SHT30;63319;46.046;17.802;2024-01-07T19:18:06;1.47;80.81
74792;SHT30;63319;46.046;17.802;2024-01-07T19:21:18;1.61;78.97
74792;SHT30;63319;46.046;17.802;2024-01-07T19:24:22;1.33;80.60